Terminal Aerodrome Forecast
Issued by NWS Spokane, WA

Home | Current Version | Previous Version | Text Only | Print | Product List | Glossary On
Versions: 1 2 3 4 5 6 7 8 9 10 11 12 13 14 15 16 17 18 19 20 21 22 23 24 25 26
000
FTUS46 KOTX 040528
TAFGEG
TAF
KGEG 040528Z 0406/0506 21010KT P6SM BKN120 OVC200
     FM041400 20010KT P6SM SCT200
     FM041800 22014G20KT P6SM FEW080 SCT250
     FM050300 21010KT P6SM SCT250=

USA.gov is the U.S. government's official web portal to all federal, state and local government web resources and services.